FOF320 MMSD-MROC
Flight info
| Callsign | FOF320 |
|---|---|
| Flight time | 3h 49m |
| Altitude | 35000 |
| Route | ILIGA1A ILIGA UT75 PVR DCT TEVOS/N0445F370 UT113 IZT J13 TAP UL423 IMOLA UM328 LIB BARRA3L |
| Aircraft | B738/M-SDE2E3FGHIRWXY/LB1 |
Departure
| Time | 2026-04-29 19:23 |
|---|---|
| Airport | Los Cabos International Airport (MMSD) |
Arrival
| Time | 2026-04-29 23:12 |
|---|---|
| Airport | Juan Santamaría International Airport (MROC) |
| Time | Latitude | Longitude | Altitude | Speed | Heading |
|---|---|---|---|---|---|
| 2026-04-29 18:51 | 23.15639 | -109.71774 | 366 ft | 0 kts | 85° |
| 2026-04-29 19:15 | 23.15639 | -109.71775 | 366 ft | 1 kts | 85° |
| 2026-04-29 19:15 | 23.15636 | -109.71792 | 366 ft | 3 kts | 76° |
| 2026-04-29 19:15 | 23.15632 | -109.71809 | 366 ft | 3 kts | 69° |
| 2026-04-29 19:16 | 23.15623 | -109.71825 | 369 ft | 3 kts | 26° |
| 2026-04-29 19:16 | 23.15605 | -109.71830 | 365 ft | 3 kts | 358° |
| 2026-04-29 19:16 | 23.15592 | -109.71829 | 368 ft | 0 kts | 355° |
| 2026-04-29 19:19 | 23.15594 | -109.71829 | 368 ft | 1 kts | 355° |
| 2026-04-29 19:19 | 23.15623 | -109.71832 | 368 ft | 7 kts | 355° |
| 2026-04-29 19:19 | 23.15690 | -109.71840 | 369 ft | 12 kts | 345° |
| 2026-04-29 19:20 | 23.15729 | -109.71909 | 373 ft | 11 kts | 308° |
| 2026-04-29 19:20 | 23.15800 | -109.71936 | 370 ft | 12 kts | 353° |
| 2026-04-29 19:20 | 23.15889 | -109.71947 | 372 ft | 14 kts | 354° |
| 2026-04-29 19:20 | 23.15999 | -109.71960 | 374 ft | 17 kts | 354° |
| 2026-04-29 19:21 | 23.16130 | -109.71973 | 377 ft | 20 kts | 354° |
| 2026-04-29 19:21 | 23.16279 | -109.71989 | 380 ft | 22 kts | 354° |
| 2026-04-29 19:21 | 23.16427 | -109.72007 | 384 ft | 21 kts | 354° |
| 2026-04-29 19:21 | 23.16551 | -109.72030 | 387 ft | 14 kts | 317° |
| 2026-04-29 19:22 | 23.16554 | -109.72132 | 387 ft | 13 kts | 263° |
| 2026-04-29 19:22 | 23.16523 | -109.72216 | 387 ft | 13 kts | 199° |
| 2026-04-29 19:22 | 23.16428 | -109.72217 | 385 ft | 20 kts | 173° |
| 2026-04-29 19:22 | 23.16041 | -109.72172 | 375 ft | 92 kts | 174° |
| 2026-04-29 19:23 | 23.15184 | -109.72074 | 358 ft | 153 kts | 173° |
| 2026-04-29 19:23 | 23.14042 | -109.71919 | 854 ft | 166 kts | 170° |
| 2026-04-29 19:23 | 23.12854 | -109.71742 | 1459 ft | 183 kts | 173° |
| 2026-04-29 19:23 | 23.11561 | -109.71556 | 2174 ft | 188 kts | 169° |
| 2026-04-29 19:24 | 23.10315 | -109.71037 | 2817 ft | 200 kts | 144° |
| 2026-04-29 19:24 | 23.09349 | -109.69899 | 3349 ft | 215 kts | 126° |
| 2026-04-29 19:24 | 23.08450 | -109.68518 | 3664 ft | 232 kts | 125° |
| 2026-04-29 19:24 | 23.07495 | -109.67058 | 4120 ft | 243 kts | 126° |
| 2026-04-29 19:25 | 23.06450 | -109.65522 | 4494 ft | 266 kts | 126° |
| 2026-04-29 19:25 | 23.05303 | -109.63848 | 4956 ft | 281 kts | 127° |
| 2026-04-29 19:25 | 23.04136 | -109.62122 | 5699 ft | 285 kts | 126° |
| 2026-04-29 19:25 | 23.03017 | -109.60361 | 6494 ft | 287 kts | 125° |
| 2026-04-29 19:26 | 23.01885 | -109.58525 | 7179 ft | 292 kts | 125° |
| 2026-04-29 19:26 | 23.00750 | -109.56677 | 7883 ft | 296 kts | 125° |
| 2026-04-29 19:26 | 22.99600 | -109.54811 | 8601 ft | 300 kts | 125° |
| 2026-04-29 19:26 | 22.98432 | -109.52921 | 9304 ft | 304 kts | 125° |
| 2026-04-29 19:27 | 22.97648 | -109.51657 | 9775 ft | 306 kts | 126° |
| 2026-04-29 19:27 | 22.96445 | -109.49719 | 10310 ft | 316 kts | 126° |
| 2026-04-29 19:27 | 22.95168 | -109.47668 | 10458 ft | 339 kts | 125° |
| 2026-04-29 19:27 | 22.93814 | -109.45494 | 10710 ft | 355 kts | 125° |
| 2026-04-29 19:28 | 22.92418 | -109.43250 | 11252 ft | 360 kts | 125° |
| 2026-04-29 19:28 | 22.91015 | -109.40996 | 11913 ft | 362 kts | 125° |
| 2026-04-29 19:28 | 22.89602 | -109.38729 | 12571 ft | 364 kts | 125° |
| 2026-04-29 19:28 | 22.88160 | -109.36458 | 13202 ft | 366 kts | 127° |
| 2026-04-29 19:29 | 22.86599 | -109.34262 | 13814 ft | 369 kts | 130° |
| 2026-04-29 19:29 | 22.84973 | -109.32099 | 14358 ft | 372 kts | 131° |
| 2026-04-29 19:29 | 22.83320 | -109.29929 | 14921 ft | 374 kts | 131° |
| 2026-04-29 19:29 | 22.81662 | -109.27745 | 15478 ft | 376 kts | 131° |
| 2026-04-29 19:30 | 22.79998 | -109.25538 | 16031 ft | 379 kts | 131° |
| 2026-04-29 19:30 | 22.78328 | -109.23313 | 16574 ft | 382 kts | 131° |
| 2026-04-29 19:30 | 22.76651 | -109.21069 | 17123 ft | 384 kts | 131° |
| 2026-04-29 19:30 | 22.74966 | -109.18813 | 17657 ft | 387 kts | 131° |
| 2026-04-29 19:31 | 22.73268 | -109.16538 | 18188 ft | 390 kts | 131° |
| 2026-04-29 19:31 | 22.71557 | -109.14249 | 18631 ft | 393 kts | 131° |
| 2026-04-29 19:31 | 22.69831 | -109.11941 | 19085 ft | 395 kts | 131° |
| 2026-04-29 19:31 | 22.68093 | -109.09619 | 19532 ft | 398 kts | 131° |
| 2026-04-29 19:32 | 22.66347 | -109.07286 | 19976 ft | 400 kts | 131° |
| 2026-04-29 19:32 | 22.64609 | -109.04965 | 20407 ft | 403 kts | 131° |
| 2026-04-29 19:32 | 22.62815 | -109.02569 | 20849 ft | 406 kts | 131° |
| 2026-04-29 19:32 | 22.61058 | -109.00223 | 21281 ft | 408 kts | 131° |
| 2026-04-29 19:33 | 22.59264 | -108.97830 | 21712 ft | 411 kts | 131° |
| 2026-04-29 19:33 | 22.57457 | -108.95419 | 22120 ft | 413 kts | 132° |
| 2026-04-29 19:33 | 22.55637 | -108.92992 | 22529 ft | 416 kts | 132° |
| 2026-04-29 19:33 | 22.53809 | -108.90555 | 22934 ft | 419 kts | 132° |
| 2026-04-29 19:34 | 22.51967 | -108.88101 | 23341 ft | 421 kts | 132° |
| 2026-04-29 19:34 | 22.50113 | -108.85631 | 23695 ft | 424 kts | 132° |
| 2026-04-29 19:34 | 22.48250 | -108.83151 | 24027 ft | 426 kts | 132° |
| 2026-04-29 19:34 | 22.46376 | -108.80658 | 24359 ft | 428 kts | 132° |
| 2026-04-29 19:35 | 22.44493 | -108.78153 | 24684 ft | 430 kts | 132° |
| 2026-04-29 19:35 | 22.42602 | -108.75639 | 25011 ft | 432 kts | 132° |
| 2026-04-29 19:35 | 22.40704 | -108.73115 | 25340 ft | 434 kts | 132° |
| 2026-04-29 19:35 | 22.38793 | -108.70578 | 25644 ft | 436 kts | 132° |
| 2026-04-29 19:36 | 22.36880 | -108.68015 | 25955 ft | 439 kts | 130° |
| 2026-04-29 19:36 | 22.35210 | -108.65233 | 26241 ft | 446 kts | 121° |
| 2026-04-29 19:36 | 22.33836 | -108.62222 | 26556 ft | 448 kts | 118° |
| 2026-04-29 19:36 | 22.32507 | -108.59162 | 26845 ft | 451 kts | 118° |
| 2026-04-29 19:37 | 22.31187 | -108.56078 | 27122 ft | 453 kts | 118° |
| 2026-04-29 19:37 | 22.30310 | -108.54031 | 27318 ft | 455 kts | 118° |
| 2026-04-29 19:37 | 22.28513 | -108.49875 | 27690 ft | 458 kts | 118° |
| 2026-04-29 19:37 | 22.27153 | -108.46761 | 27959 ft | 460 kts | 118° |
| 2026-04-29 19:38 | 22.25779 | -108.43635 | 28230 ft | 462 kts | 118° |
| 2026-04-29 19:38 | 22.24396 | -108.40505 | 28486 ft | 464 kts | 118° |
| 2026-04-29 19:38 | 22.22999 | -108.37350 | 28743 ft | 466 kts | 118° |
| 2026-04-29 19:38 | 22.21597 | -108.34191 | 28988 ft | 468 kts | 118° |
| 2026-04-29 19:39 | 22.20207 | -108.31057 | 29223 ft | 470 kts | 118° |
| 2026-04-29 19:39 | 22.18788 | -108.27863 | 29472 ft | 472 kts | 119° |
| 2026-04-29 19:39 | 22.17368 | -108.24666 | 29707 ft | 474 kts | 118° |
| 2026-04-29 19:39 | 22.15939 | -108.21451 | 29944 ft | 476 kts | 118° |
| 2026-04-29 19:40 | 22.14505 | -108.18224 | 30145 ft | 478 kts | 118° |
| 2026-04-29 19:40 | 22.13065 | -108.14987 | 30354 ft | 479 kts | 118° |
| 2026-04-29 19:40 | 22.11621 | -108.11743 | 30558 ft | 480 kts | 118° |
| 2026-04-29 19:40 | 22.10174 | -108.08493 | 30783 ft | 481 kts | 118° |
| 2026-04-29 19:41 | 22.08723 | -108.05237 | 31058 ft | 481 kts | 118° |
| 2026-04-29 19:41 | 22.07274 | -108.01986 | 31375 ft | 479 kts | 118° |
| 2026-04-29 19:41 | 22.05834 | -107.98758 | 31694 ft | 478 kts | 118° |
| 2026-04-29 19:41 | 22.04395 | -107.95536 | 31975 ft | 477 kts | 118° |
| 2026-04-29 19:42 | 22.02953 | -107.92309 | 32244 ft | 477 kts | 118° |
| 2026-04-29 19:42 | 22.01998 | -107.90173 | 32431 ft | 477 kts | 118° |
| 2026-04-29 19:42 | 22.00076 | -107.85878 | 32837 ft | 475 kts | 118° |
| 2026-04-29 19:42 | 21.98642 | -107.82676 | 33133 ft | 474 kts | 118° |
| 2026-04-29 19:43 | 21.97208 | -107.79475 | 33404 ft | 474 kts | 118° |
| 2026-04-29 19:43 | 21.95775 | -107.76278 | 33673 ft | 474 kts | 118° |
| 2026-04-29 19:43 | 21.94340 | -107.73080 | 33953 ft | 473 kts | 118° |
| 2026-04-29 19:43 | 21.92913 | -107.69900 | 34191 ft | 472 kts | 118° |
| 2026-04-29 19:44 | 21.91481 | -107.66714 | 34378 ft | 472 kts | 118° |
| 2026-04-29 19:44 | 21.90050 | -107.63530 | 34578 ft | 473 kts | 118° |
| 2026-04-29 19:44 | 21.88615 | -107.60339 | 34787 ft | 473 kts | 118° |
| 2026-04-29 19:44 | 21.87181 | -107.57154 | 34993 ft | 473 kts | 118° |
| 2026-04-29 19:45 | 21.85763 | -107.54004 | 35180 ft | 473 kts | 118° |
| 2026-04-29 19:45 | 21.84328 | -107.50819 | 35369 ft | 473 kts | 118° |
| 2026-04-29 19:45 | 21.82887 | -107.47623 | 35567 ft | 473 kts | 118° |
| 2026-04-29 19:45 | 21.81453 | -107.44445 | 35759 ft | 473 kts | 118° |
| 2026-04-29 19:46 | 21.80013 | -107.41255 | 35943 ft | 473 kts | 118° |
| 2026-04-29 19:46 | 21.78554 | -107.38026 | 36145 ft | 473 kts | 118° |
| 2026-04-29 19:46 | 21.77136 | -107.34888 | 36332 ft | 473 kts | 118° |
| 2026-04-29 19:46 | 21.75700 | -107.31712 | 36508 ft | 473 kts | 117° |
| 2026-04-29 19:47 | 21.74257 | -107.28524 | 36680 ft | 473 kts | 117° |
| 2026-04-29 19:47 | 21.72817 | -107.25344 | 36857 ft | 473 kts | 117° |
| 2026-04-29 19:47 | 21.71373 | -107.22157 | 36900 ft | 475 kts | 117° |
| 2026-04-29 19:48 | 21.68477 | -107.15771 | 36905 ft | 474 kts | 117° |
| 2026-04-29 19:48 | 21.65591 | -107.09417 | 36902 ft | 472 kts | 117° |
| 2026-04-29 19:49 | 21.62713 | -107.03086 | 36908 ft | 471 kts | 117° |
| 2026-04-29 19:49 | 21.59837 | -106.96769 | 36907 ft | 470 kts | 117° |
| 2026-04-29 19:50 | 21.56968 | -106.90473 | 36902 ft | 469 kts | 117° |
| 2026-04-29 19:50 | 21.54092 | -106.84172 | 36899 ft | 469 kts | 117° |
| 2026-04-29 19:51 | 21.51217 | -106.77879 | 36908 ft | 470 kts | 117° |
| 2026-04-29 19:51 | 21.48328 | -106.71563 | 36912 ft | 471 kts | 117° |
| 2026-04-29 19:52 | 21.45433 | -106.65243 | 36897 ft | 472 kts | 117° |
| 2026-04-29 19:52 | 21.42531 | -106.58914 | 36904 ft | 473 kts | 117° |
| 2026-04-29 19:53 | 21.39618 | -106.52569 | 36899 ft | 474 kts | 117° |
| 2026-04-29 19:53 | 21.36696 | -106.46212 | 36898 ft | 475 kts | 117° |
| 2026-04-29 19:54 | 21.32302 | -106.36664 | 36899 ft | 476 kts | 117° |
| 2026-04-29 19:54 | 21.29346 | -106.30299 | 36884 ft | 477 kts | 120° |
| 2026-04-29 19:55 | 21.25995 | -106.24174 | 36895 ft | 476 kts | 123° |
| 2026-04-29 19:55 | 21.22524 | -106.18138 | 36897 ft | 476 kts | 123° |
| 2026-04-29 19:56 | 21.19085 | -106.12086 | 36888 ft | 475 kts | 122° |
| 2026-04-29 19:56 | 21.15674 | -106.06027 | 36892 ft | 475 kts | 122° |
| 2026-04-29 19:57 | 21.12840 | -106.00988 | 36884 ft | 474 kts | 122° |
| 2026-04-29 19:57 | 21.08863 | -105.93931 | 36877 ft | 473 kts | 122° |
| 2026-04-29 19:58 | 21.05458 | -105.87900 | 36882 ft | 473 kts | 122° |
| 2026-04-29 19:58 | 21.02062 | -105.81888 | 36886 ft | 472 kts | 122° |
| 2026-04-29 19:59 | 20.98665 | -105.75878 | 36879 ft | 471 kts | 122° |
| 2026-04-29 19:59 | 20.95247 | -105.69835 | 36882 ft | 471 kts | 122° |
| 2026-04-29 20:00 | 20.91854 | -105.63844 | 36887 ft | 471 kts | 122° |
| 2026-04-29 20:00 | 20.88460 | -105.57856 | 36889 ft | 471 kts | 122° |
| 2026-04-29 20:01 | 20.85022 | -105.51797 | 36897 ft | 470 kts | 122° |
| 2026-04-29 20:01 | 20.81633 | -105.45813 | 36910 ft | 470 kts | 122° |
| 2026-04-29 20:02 | 20.78242 | -105.39828 | 36927 ft | 471 kts | 122° |
| 2026-04-29 20:02 | 20.75972 | -105.35825 | 36932 ft | 470 kts | 122° |
| 2026-04-29 20:03 | 20.71453 | -105.27866 | 36936 ft | 472 kts | 122° |
| 2026-04-29 20:03 | 20.68761 | -105.22796 | 36915 ft | 473 kts | 113° |
| 2026-04-29 20:04 | 20.66469 | -105.16202 | 36929 ft | 474 kts | 109° |
| 2026-04-29 20:04 | 20.63955 | -105.08470 | 36927 ft | 474 kts | 109° |
| 2026-04-29 20:05 | 20.62104 | -105.02863 | 36929 ft | 474 kts | 109° |
| 2026-04-29 20:05 | 20.59881 | -104.96239 | 36929 ft | 474 kts | 109° |
| 2026-04-29 20:06 | 20.57645 | -104.89631 | 36952 ft | 472 kts | 109° |
| 2026-04-29 20:06 | 20.55408 | -104.83034 | 36959 ft | 471 kts | 109° |
| 2026-04-29 20:07 | 20.53181 | -104.76468 | 36966 ft | 470 kts | 109° |
| 2026-04-29 20:07 | 20.50953 | -104.69910 | 36966 ft | 470 kts | 109° |
| 2026-04-29 20:08 | 20.49103 | -104.64467 | 36950 ft | 470 kts | 109° |
| 2026-04-29 20:08 | 20.46499 | -104.56819 | 36921 ft | 469 kts | 109° |
| 2026-04-29 20:09 | 20.44271 | -104.50285 | 36875 ft | 468 kts | 109° |
| 2026-04-29 20:09 | 20.42057 | -104.43802 | 36861 ft | 468 kts | 109° |
| 2026-04-29 20:10 | 20.39828 | -104.37282 | 36856 ft | 468 kts | 109° |
| 2026-04-29 20:10 | 20.37640 | -104.30893 | 36838 ft | 467 kts | 109° |
| 2026-04-29 20:11 | 20.35412 | -104.24396 | 36831 ft | 467 kts | 109° |
| 2026-04-29 20:11 | 20.33180 | -104.17895 | 36807 ft | 467 kts | 109° |
| 2026-04-29 20:12 | 20.30947 | -104.11398 | 36820 ft | 467 kts | 109° |
| 2026-04-29 20:12 | 20.28711 | -104.04903 | 36804 ft | 468 kts | 109° |
| 2026-04-29 20:13 | 20.26467 | -103.98396 | 36819 ft | 467 kts | 109° |
| 2026-04-29 20:13 | 20.24230 | -103.91914 | 36802 ft | 467 kts | 109° |
| 2026-04-29 20:14 | 20.21983 | -103.85414 | 36816 ft | 468 kts | 109° |
| 2026-04-29 20:14 | 20.19732 | -103.78911 | 36820 ft | 468 kts | 109° |
| 2026-04-29 20:15 | 20.17479 | -103.72410 | 36803 ft | 468 kts | 109° |
| 2026-04-29 20:15 | 20.15220 | -103.65903 | 36806 ft | 468 kts | 109° |
| 2026-04-29 20:16 | 20.12961 | -103.59405 | 36809 ft | 468 kts | 109° |
| 2026-04-29 20:16 | 20.10698 | -103.52901 | 36805 ft | 468 kts | 109° |
| 2026-04-29 20:17 | 20.08452 | -103.46455 | 36814 ft | 467 kts | 109° |
| 2026-04-29 20:17 | 20.06162 | -103.39893 | 36813 ft | 467 kts | 109° |
| 2026-04-29 20:18 | 20.03909 | -103.33447 | 36817 ft | 467 kts | 109° |
| 2026-04-29 20:18 | 20.01648 | -103.26983 | 36808 ft | 466 kts | 109° |
| 2026-04-29 20:19 | 19.99383 | -103.20519 | 36815 ft | 466 kts | 109° |
| 2026-04-29 20:19 | 19.97120 | -103.14066 | 36822 ft | 466 kts | 109° |
| 2026-04-29 20:20 | 19.94853 | -103.07612 | 36826 ft | 466 kts | 109° |
| 2026-04-29 20:20 | 19.92586 | -103.01167 | 36812 ft | 466 kts | 109° |
| 2026-04-29 20:21 | 19.90313 | -102.94715 | 36814 ft | 466 kts | 109° |
| 2026-04-29 20:21 | 19.88044 | -102.88279 | 36806 ft | 465 kts | 109° |
| 2026-04-29 20:22 | 19.85773 | -102.81848 | 36815 ft | 465 kts | 109° |
| 2026-04-29 20:22 | 19.83498 | -102.75413 | 36814 ft | 465 kts | 109° |
| 2026-04-29 20:23 | 19.81220 | -102.68978 | 36812 ft | 466 kts | 109° |
| 2026-04-29 20:23 | 19.78937 | -102.62538 | 36821 ft | 466 kts | 109° |
| 2026-04-29 20:24 | 19.76648 | -102.56090 | 36823 ft | 467 kts | 109° |
| 2026-04-29 20:24 | 19.74357 | -102.49644 | 36823 ft | 468 kts | 109° |
| 2026-04-29 20:25 | 19.72055 | -102.43176 | 36832 ft | 468 kts | 109° |
| 2026-04-29 20:25 | 19.69750 | -102.36707 | 36853 ft | 469 kts | 109° |
| 2026-04-29 20:26 | 19.67452 | -102.30266 | 36859 ft | 470 kts | 109° |
| 2026-04-29 20:26 | 19.65135 | -102.23781 | 36919 ft | 470 kts | 109° |
| 2026-04-29 20:27 | 19.63190 | -102.18344 | 36969 ft | 471 kts | 109° |
| 2026-04-29 20:27 | 19.60485 | -102.10790 | 37029 ft | 471 kts | 109° |
| 2026-04-29 20:28 | 19.58158 | -102.04301 | 37067 ft | 470 kts | 109° |
| 2026-04-29 20:28 | 19.55816 | -101.97778 | 37081 ft | 469 kts | 109° |
| 2026-04-29 20:29 | 19.53507 | -101.91358 | 37065 ft | 468 kts | 109° |
| 2026-04-29 20:29 | 19.51175 | -101.84882 | 37031 ft | 466 kts | 109° |
| 2026-04-29 20:30 | 19.48860 | -101.78459 | 36994 ft | 466 kts | 109° |
| 2026-04-29 20:30 | 19.46563 | -101.72094 | 36934 ft | 466 kts | 109° |
| 2026-04-29 20:31 | 19.44248 | -101.65687 | 36884 ft | 466 kts | 109° |
| 2026-04-29 20:31 | 19.41925 | -101.59269 | 36885 ft | 466 kts | 109° |
| 2026-04-29 20:32 | 19.39598 | -101.52845 | 36879 ft | 468 kts | 109° |
| 2026-04-29 20:32 | 19.37643 | -101.47454 | 36869 ft | 468 kts | 109° |
| 2026-04-29 20:33 | 19.34921 | -101.39960 | 36856 ft | 469 kts | 109° |
| 2026-04-29 20:33 | 19.32578 | -101.33518 | 36852 ft | 469 kts | 109° |
| 2026-04-29 20:34 | 19.30225 | -101.27055 | 36857 ft | 471 kts | 109° |
| 2026-04-29 20:34 | 19.27868 | -101.20589 | 36843 ft | 471 kts | 109° |
| 2026-04-29 20:35 | 19.25509 | -101.14127 | 36821 ft | 470 kts | 109° |
| 2026-04-29 20:35 | 19.23152 | -101.07679 | 36808 ft | 469 kts | 109° |
| 2026-04-29 20:36 | 19.21148 | -101.02201 | 36805 ft | 468 kts | 109° |
| 2026-04-29 20:36 | 19.18798 | -100.95788 | 36796 ft | 467 kts | 109° |
| 2026-04-29 20:37 | 19.16449 | -100.89382 | 36779 ft | 466 kts | 109° |
| 2026-04-29 20:37 | 19.14105 | -100.83001 | 36773 ft | 466 kts | 109° |
| 2026-04-29 20:38 | 19.11754 | -100.76605 | 36771 ft | 466 kts | 109° |
| 2026-04-29 20:38 | 19.09407 | -100.70229 | 36774 ft | 466 kts | 109° |
| 2026-04-29 20:39 | 19.07046 | -100.63825 | 36771 ft | 467 kts | 109° |
| 2026-04-29 20:39 | 19.04701 | -100.57471 | 36778 ft | 467 kts | 109° |
| 2026-04-29 20:40 | 19.02337 | -100.51071 | 36792 ft | 468 kts | 109° |
| 2026-04-29 20:40 | 18.99968 | -100.44667 | 36796 ft | 469 kts | 109° |
| 2026-04-29 20:41 | 18.97590 | -100.38246 | 36798 ft | 469 kts | 109° |
| 2026-04-29 20:41 | 18.95209 | -100.31827 | 36817 ft | 469 kts | 109° |
| 2026-04-29 20:42 | 18.92826 | -100.25407 | 36831 ft | 470 kts | 109° |
| 2026-04-29 20:42 | 18.90439 | -100.18985 | 36845 ft | 470 kts | 109° |
| 2026-04-29 20:43 | 18.88047 | -100.12559 | 36861 ft | 470 kts | 109° |
| 2026-04-29 20:43 | 18.85656 | -100.06143 | 36866 ft | 470 kts | 109° |
| 2026-04-29 20:44 | 18.83264 | -99.99731 | 36874 ft | 469 kts | 109° |
| 2026-04-29 20:44 | 18.80867 | -99.93315 | 36875 ft | 469 kts | 108° |
| 2026-04-29 20:45 | 18.78472 | -99.86911 | 36880 ft | 469 kts | 108° |
| 2026-04-29 20:45 | 18.76074 | -99.80505 | 36872 ft | 469 kts | 108° |
| 2026-04-29 20:46 | 18.73690 | -99.74144 | 36860 ft | 468 kts | 108° |
| 2026-04-29 20:46 | 18.71278 | -99.67720 | 36852 ft | 468 kts | 108° |
| 2026-04-29 20:47 | 18.68881 | -99.61341 | 36838 ft | 468 kts | 108° |
| 2026-04-29 20:47 | 18.66498 | -99.55004 | 36846 ft | 467 kts | 108° |
| 2026-04-29 20:48 | 18.64100 | -99.48639 | 36874 ft | 466 kts | 108° |
| 2026-04-29 20:48 | 18.61705 | -99.42287 | 36879 ft | 466 kts | 108° |
| 2026-04-29 20:49 | 18.59311 | -99.35946 | 36878 ft | 465 kts | 108° |
| 2026-04-29 20:49 | 18.56902 | -99.29571 | 36869 ft | 464 kts | 108° |
| 2026-04-29 20:50 | 18.54523 | -99.23284 | 36840 ft | 465 kts | 108° |
| 2026-04-29 20:50 | 18.52127 | -99.16958 | 36796 ft | 465 kts | 108° |
| 2026-04-29 20:51 | 18.49694 | -99.10542 | 36754 ft | 466 kts | 108° |
| 2026-04-29 20:51 | 18.47289 | -99.04208 | 36750 ft | 466 kts | 108° |
| 2026-04-29 20:52 | 18.44876 | -98.97857 | 36746 ft | 467 kts | 108° |
| 2026-04-29 20:52 | 18.42302 | -98.91565 | 36741 ft | 471 kts | 117° |
| 2026-04-29 20:53 | 18.38645 | -98.85821 | 36740 ft | 474 kts | 122° |
| 2026-04-29 20:53 | 18.34825 | -98.80152 | 36746 ft | 474 kts | 122° |
| 2026-04-29 20:54 | 18.29179 | -98.71611 | 36745 ft | 473 kts | 121° |
| 2026-04-29 20:55 | 18.25471 | -98.65949 | 36742 ft | 473 kts | 121° |
| 2026-04-29 20:55 | 18.21734 | -98.60251 | 36748 ft | 473 kts | 122° |
| 2026-04-29 20:56 | 18.17953 | -98.54494 | 36742 ft | 472 kts | 122° |
| 2026-04-29 20:56 | 18.14225 | -98.48817 | 36756 ft | 471 kts | 121° |
| 2026-04-29 20:57 | 18.10561 | -98.43101 | 36748 ft | 470 kts | 121° |
| 2026-04-29 20:57 | 18.06936 | -98.37397 | 36757 ft | 469 kts | 121° |
| 2026-04-29 20:58 | 18.03307 | -98.31706 | 36764 ft | 468 kts | 121° |
| 2026-04-29 20:58 | 17.99629 | -98.25956 | 36766 ft | 467 kts | 121° |
| 2026-04-29 20:59 | 17.95977 | -98.20254 | 36766 ft | 467 kts | 121° |
| 2026-04-29 20:59 | 17.92352 | -98.14600 | 36774 ft | 466 kts | 121° |
| 2026-04-29 21:00 | 17.88730 | -98.08955 | 36778 ft | 466 kts | 121° |
| 2026-04-29 21:00 | 17.85106 | -98.03310 | 36791 ft | 466 kts | 121° |
| 2026-04-29 21:01 | 17.81505 | -97.97706 | 36804 ft | 466 kts | 121° |
| 2026-04-29 21:01 | 17.77873 | -97.92059 | 36803 ft | 467 kts | 121° |
| 2026-04-29 21:02 | 17.74240 | -97.86414 | 36816 ft | 466 kts | 121° |
| 2026-04-29 21:02 | 17.70614 | -97.80786 | 36841 ft | 466 kts | 121° |
| 2026-04-29 21:03 | 17.66904 | -97.75207 | 36848 ft | 467 kts | 123° |
| 2026-04-29 21:03 | 17.62998 | -97.69745 | 36859 ft | 468 kts | 124° |
| 2026-04-29 21:04 | 17.59096 | -97.64292 | 36870 ft | 467 kts | 123° |
| 2026-04-29 21:04 | 17.55221 | -97.58819 | 36867 ft | 467 kts | 123° |
| 2026-04-29 21:05 | 17.51361 | -97.53354 | 36895 ft | 466 kts | 123° |
| 2026-04-29 21:05 | 17.47505 | -97.47898 | 36895 ft | 466 kts | 123° |
| 2026-04-29 21:06 | 17.44276 | -97.43322 | 36891 ft | 466 kts | 123° |
| 2026-04-29 21:06 | 17.40586 | -97.37737 | 36966 ft | 469 kts | 121° |
| 2026-04-29 21:06 | 17.38760 | -97.34910 | 37153 ft | 468 kts | 121° |
| 2026-04-29 21:07 | 17.36932 | -97.32088 | 37418 ft | 466 kts | 121° |
| 2026-04-29 21:07 | 17.35103 | -97.29282 | 37595 ft | 467 kts | 121° |
| 2026-04-29 21:07 | 17.33259 | -97.26466 | 37731 ft | 468 kts | 122° |
| 2026-04-29 21:07 | 17.31415 | -97.23660 | 37914 ft | 468 kts | 122° |
| 2026-04-29 21:08 | 17.29593 | -97.20892 | 38120 ft | 467 kts | 122° |
| 2026-04-29 21:08 | 17.27750 | -97.18094 | 38313 ft | 466 kts | 122° |
| 2026-04-29 21:08 | 17.25911 | -97.15299 | 38467 ft | 466 kts | 122° |
| 2026-04-29 21:08 | 17.24072 | -97.12507 | 38610 ft | 466 kts | 122° |
| 2026-04-29 21:09 | 17.22232 | -97.09714 | 38775 ft | 465 kts | 122° |
| 2026-04-29 21:09 | 17.18512 | -97.04171 | 38869 ft | 467 kts | 123° |
| 2026-04-29 21:10 | 17.14708 | -96.98641 | 38932 ft | 466 kts | 123° |
| 2026-04-29 21:10 | 17.10928 | -96.93141 | 38983 ft | 465 kts | 123° |
| 2026-04-29 21:11 | 17.07171 | -96.87653 | 39027 ft | 463 kts | 123° |
| 2026-04-29 21:11 | 17.03428 | -96.82186 | 39074 ft | 462 kts | 123° |
| 2026-04-29 21:12 | 16.99698 | -96.76744 | 39081 ft | 460 kts | 123° |
| 2026-04-29 21:12 | 16.96482 | -96.71018 | 39075 ft | 454 kts | 108° |
| 2026-04-29 21:13 | 16.94568 | -96.64774 | 39082 ft | 451 kts | 104° |
| 2026-04-29 21:13 | 16.92745 | -96.58539 | 39039 ft | 451 kts | 104° |
| 2026-04-29 21:14 | 16.90856 | -96.52276 | 38992 ft | 452 kts | 105° |
| 2026-04-29 21:14 | 16.88938 | -96.46007 | 38945 ft | 454 kts | 105° |
| 2026-04-29 21:15 | 16.87015 | -96.39727 | 38890 ft | 455 kts | 105° |
| 2026-04-29 21:15 | 16.85071 | -96.33432 | 38876 ft | 455 kts | 105° |
| 2026-04-29 21:16 | 16.83116 | -96.27134 | 38872 ft | 456 kts | 105° |
| 2026-04-29 21:16 | 16.81159 | -96.20830 | 38870 ft | 456 kts | 105° |
| 2026-04-29 21:17 | 16.79203 | -96.14531 | 38856 ft | 456 kts | 105° |
| 2026-04-29 21:17 | 16.77247 | -96.08238 | 38864 ft | 456 kts | 105° |
| 2026-04-29 21:18 | 16.75289 | -96.01949 | 38851 ft | 455 kts | 105° |
| 2026-04-29 21:18 | 16.73349 | -95.95717 | 38842 ft | 454 kts | 105° |
| 2026-04-29 21:19 | 16.71388 | -95.89430 | 38837 ft | 452 kts | 105° |
| 2026-04-29 21:19 | 16.69443 | -95.83200 | 38834 ft | 451 kts | 105° |
| 2026-04-29 21:20 | 16.67504 | -95.76976 | 38836 ft | 450 kts | 105° |
| 2026-04-29 21:20 | 16.65576 | -95.70773 | 38832 ft | 449 kts | 105° |
| 2026-04-29 21:21 | 16.63658 | -95.64612 | 38824 ft | 450 kts | 105° |
| 2026-04-29 21:21 | 16.61723 | -95.58402 | 38816 ft | 450 kts | 105° |
| 2026-04-29 21:22 | 16.59784 | -95.52192 | 38816 ft | 451 kts | 105° |
| 2026-04-29 21:22 | 16.57838 | -95.45962 | 38806 ft | 452 kts | 106° |
| 2026-04-29 21:23 | 16.55889 | -95.39734 | 38808 ft | 452 kts | 106° |
| 2026-04-29 21:23 | 16.53935 | -95.33496 | 38809 ft | 453 kts | 106° |
| 2026-04-29 21:24 | 16.51977 | -95.27253 | 38798 ft | 453 kts | 105° |
| 2026-04-29 21:24 | 16.50019 | -95.21014 | 38804 ft | 453 kts | 106° |
| 2026-04-29 21:25 | 16.48057 | -95.14769 | 38796 ft | 453 kts | 105° |
| 2026-04-29 21:25 | 16.45890 | -95.08595 | 38786 ft | 456 kts | 115° |
| 2026-04-29 21:26 | 16.42590 | -95.02946 | 38796 ft | 457 kts | 121° |
| 2026-04-29 21:26 | 16.39137 | -94.97390 | 38802 ft | 457 kts | 121° |
| 2026-04-29 21:27 | 16.35709 | -94.91814 | 38798 ft | 457 kts | 120° |
| 2026-04-29 21:27 | 16.32311 | -94.86221 | 38798 ft | 456 kts | 120° |
| 2026-04-29 21:28 | 16.28927 | -94.80634 | 38804 ft | 456 kts | 120° |
| 2026-04-29 21:28 | 16.25564 | -94.75085 | 38802 ft | 456 kts | 120° |
| 2026-04-29 21:29 | 16.22178 | -94.69504 | 38809 ft | 456 kts | 120° |
| 2026-04-29 21:29 | 16.18789 | -94.63923 | 38806 ft | 456 kts | 120° |
| 2026-04-29 21:30 | 16.15352 | -94.58269 | 38809 ft | 456 kts | 120° |
| 2026-04-29 21:30 | 16.11963 | -94.52698 | 38809 ft | 456 kts | 120° |
| 2026-04-29 21:31 | 16.08573 | -94.47129 | 38811 ft | 455 kts | 120° |
| 2026-04-29 21:31 | 16.05160 | -94.41527 | 38812 ft | 455 kts | 121° |
| 2026-04-29 21:32 | 16.01769 | -94.35965 | 38810 ft | 455 kts | 121° |
| 2026-04-29 21:32 | 15.98401 | -94.30444 | 38812 ft | 455 kts | 121° |
| 2026-04-29 21:33 | 15.95009 | -94.24889 | 38811 ft | 455 kts | 121° |
| 2026-04-29 21:33 | 15.91617 | -94.19338 | 38813 ft | 455 kts | 121° |
| 2026-04-29 21:34 | 15.88225 | -94.13790 | 38813 ft | 455 kts | 121° |
| 2026-04-29 21:34 | 15.84832 | -94.08246 | 38814 ft | 455 kts | 121° |
| 2026-04-29 21:35 | 15.81436 | -94.02698 | 38817 ft | 455 kts | 121° |
| 2026-04-29 21:35 | 15.78039 | -93.97157 | 38818 ft | 455 kts | 121° |
| 2026-04-29 21:36 | 15.74641 | -93.91620 | 38821 ft | 455 kts | 121° |
| 2026-04-29 21:36 | 15.71241 | -93.86082 | 38823 ft | 455 kts | 121° |
| 2026-04-29 21:37 | 15.67840 | -93.80544 | 38820 ft | 455 kts | 121° |
| 2026-04-29 21:37 | 15.64439 | -93.75010 | 38823 ft | 455 kts | 121° |
| 2026-04-29 21:38 | 15.61039 | -93.69482 | 38821 ft | 455 kts | 121° |
| 2026-04-29 21:38 | 15.57608 | -93.63908 | 38830 ft | 455 kts | 120° |
| 2026-04-29 21:39 | 15.54759 | -93.59282 | 38825 ft | 455 kts | 120° |
| 2026-04-29 21:39 | 15.51354 | -93.53758 | 38827 ft | 455 kts | 120° |
| 2026-04-29 21:40 | 15.47961 | -93.48257 | 38827 ft | 455 kts | 120° |
| 2026-04-29 21:40 | 15.44550 | -93.42731 | 38823 ft | 455 kts | 120° |
| 2026-04-29 21:41 | 15.41139 | -93.37209 | 38829 ft | 455 kts | 120° |
| 2026-04-29 21:41 | 15.37732 | -93.31696 | 38828 ft | 455 kts | 120° |
| 2026-04-29 21:42 | 15.34318 | -93.26179 | 38827 ft | 454 kts | 120° |
| 2026-04-29 21:42 | 15.30908 | -93.20670 | 38827 ft | 454 kts | 120° |
| 2026-04-29 21:43 | 15.27493 | -93.15157 | 38831 ft | 454 kts | 120° |
| 2026-04-29 21:43 | 15.24059 | -93.09617 | 38827 ft | 454 kts | 120° |
| 2026-04-29 21:44 | 15.20645 | -93.04114 | 38823 ft | 454 kts | 120° |
| 2026-04-29 21:44 | 15.17231 | -92.98615 | 38827 ft | 454 kts | 120° |
| 2026-04-29 21:45 | 15.13816 | -92.93117 | 38834 ft | 454 kts | 120° |
| 2026-04-29 21:45 | 15.10425 | -92.87662 | 38837 ft | 454 kts | 120° |
| 2026-04-29 21:46 | 15.06986 | -92.82134 | 38843 ft | 454 kts | 120° |
| 2026-04-29 21:46 | 15.03587 | -92.76671 | 38843 ft | 454 kts | 120° |
| 2026-04-29 21:47 | 15.00165 | -92.71180 | 38852 ft | 454 kts | 120° |
| 2026-04-29 21:47 | 14.96744 | -92.65694 | 38855 ft | 454 kts | 120° |
| 2026-04-29 21:48 | 14.93272 | -92.60129 | 38859 ft | 454 kts | 120° |
| 2026-04-29 21:48 | 14.89849 | -92.54643 | 38861 ft | 454 kts | 120° |
| 2026-04-29 21:49 | 14.86400 | -92.49120 | 38857 ft | 454 kts | 120° |
| 2026-04-29 21:49 | 14.82970 | -92.43631 | 38851 ft | 454 kts | 120° |
| 2026-04-29 21:50 | 14.79541 | -92.38146 | 38852 ft | 454 kts | 120° |
| 2026-04-29 21:50 | 14.76434 | -92.32491 | 38856 ft | 452 kts | 115° |
| 2026-04-29 21:51 | 14.73505 | -92.26734 | 38856 ft | 452 kts | 115° |
| 2026-04-29 21:51 | 14.69063 | -92.18172 | 38875 ft | 452 kts | 115° |
| 2026-04-29 21:52 | 14.66068 | -92.12451 | 38882 ft | 453 kts | 115° |
| 2026-04-29 21:52 | 14.63066 | -92.06741 | 38893 ft | 453 kts | 116° |
| 2026-04-29 21:53 | 14.60055 | -92.01018 | 38881 ft | 452 kts | 116° |
| 2026-04-29 21:53 | 14.57051 | -91.95310 | 38858 ft | 452 kts | 116° |
| 2026-04-29 21:54 | 14.54048 | -91.89606 | 38845 ft | 452 kts | 116° |
| 2026-04-29 21:54 | 14.51049 | -91.83912 | 38837 ft | 452 kts | 116° |
| 2026-04-29 21:55 | 14.48047 | -91.78216 | 38834 ft | 451 kts | 116° |
| 2026-04-29 21:55 | 14.45046 | -91.72527 | 38834 ft | 451 kts | 116° |
| 2026-04-29 21:56 | 14.42046 | -91.66844 | 38833 ft | 451 kts | 116° |
| 2026-04-29 21:56 | 14.39044 | -91.61160 | 38836 ft | 451 kts | 116° |
| 2026-04-29 21:57 | 14.36043 | -91.55484 | 38848 ft | 451 kts | 116° |
| 2026-04-29 21:57 | 14.33034 | -91.49797 | 38867 ft | 451 kts | 116° |
| 2026-04-29 21:58 | 14.30028 | -91.44119 | 38899 ft | 451 kts | 116° |
| 2026-04-29 21:58 | 14.27018 | -91.38437 | 38916 ft | 451 kts | 116° |
| 2026-04-29 21:59 | 14.24025 | -91.32792 | 38911 ft | 452 kts | 116° |
| 2026-04-29 21:59 | 14.21005 | -91.27100 | 38914 ft | 452 kts | 116° |
| 2026-04-29 22:00 | 14.17987 | -91.21414 | 38912 ft | 453 kts | 116° |
| 2026-04-29 22:00 | 14.14941 | -91.15682 | 38914 ft | 453 kts | 116° |
| 2026-04-29 22:01 | 14.11872 | -91.09911 | 38917 ft | 453 kts | 116° |
| 2026-04-29 22:01 | 14.08840 | -91.04212 | 38920 ft | 454 kts | 116° |
| 2026-04-29 22:02 | 14.05822 | -90.98544 | 38922 ft | 454 kts | 116° |
| 2026-04-29 22:02 | 14.02762 | -90.92801 | 38922 ft | 454 kts | 116° |
| 2026-04-29 22:03 | 13.99740 | -90.87134 | 38926 ft | 455 kts | 116° |
| 2026-04-29 22:03 | 13.96693 | -90.81422 | 38934 ft | 455 kts | 116° |
| 2026-04-29 22:04 | 13.93626 | -90.75678 | 38935 ft | 455 kts | 116° |
| 2026-04-29 22:04 | 13.90583 | -90.69982 | 38932 ft | 456 kts | 116° |
| 2026-04-29 22:05 | 13.87522 | -90.64259 | 38938 ft | 456 kts | 116° |
| 2026-04-29 22:06 | 13.82926 | -90.55671 | 38923 ft | 457 kts | 116° |
| 2026-04-29 22:06 | 13.79863 | -90.49951 | 38922 ft | 457 kts | 116° |
| 2026-04-29 22:07 | 13.76768 | -90.44178 | 38923 ft | 457 kts | 116° |
| 2026-04-29 22:07 | 13.73720 | -90.38496 | 38919 ft | 457 kts | 116° |
| 2026-04-29 22:08 | 13.70651 | -90.32777 | 38914 ft | 456 kts | 116° |
| 2026-04-29 22:08 | 13.67583 | -90.27066 | 38914 ft | 456 kts | 116° |
| 2026-04-29 22:09 | 13.64515 | -90.21357 | 38914 ft | 455 kts | 117° |
| 2026-04-29 22:09 | 13.61450 | -90.15659 | 38910 ft | 454 kts | 117° |
| 2026-04-29 22:10 | 13.58891 | -90.10904 | 38911 ft | 454 kts | 117° |
| 2026-04-29 22:10 | 13.55838 | -90.05236 | 38912 ft | 453 kts | 117° |
| 2026-04-29 22:11 | 13.52772 | -89.99545 | 38898 ft | 452 kts | 117° |
| 2026-04-29 22:11 | 13.49727 | -89.93899 | 38894 ft | 451 kts | 117° |
| 2026-04-29 22:12 | 13.46709 | -89.88305 | 38895 ft | 450 kts | 117° |
| 2026-04-29 22:12 | 13.43675 | -89.82686 | 38888 ft | 450 kts | 117° |
| 2026-04-29 22:13 | 13.40638 | -89.77066 | 38885 ft | 450 kts | 117° |
| 2026-04-29 22:13 | 13.37602 | -89.71449 | 38879 ft | 450 kts | 117° |
| 2026-04-29 22:14 | 13.34565 | -89.65836 | 38871 ft | 450 kts | 118° |
| 2026-04-29 22:14 | 13.31513 | -89.60199 | 38862 ft | 451 kts | 118° |
| 2026-04-29 22:15 | 13.28460 | -89.54562 | 38846 ft | 453 kts | 118° |
| 2026-04-29 22:15 | 13.25370 | -89.48863 | 38835 ft | 454 kts | 118° |
| 2026-04-29 22:16 | 13.22292 | -89.43188 | 38824 ft | 456 kts | 118° |
| 2026-04-29 22:16 | 13.19205 | -89.37502 | 38821 ft | 457 kts | 119° |
| 2026-04-29 22:17 | 13.16103 | -89.31791 | 38818 ft | 459 kts | 119° |
| 2026-04-29 22:17 | 13.13009 | -89.26099 | 38819 ft | 460 kts | 119° |
| 2026-04-29 22:18 | 13.09889 | -89.20362 | 38811 ft | 461 kts | 119° |
| 2026-04-29 22:18 | 13.06763 | -89.14616 | 38813 ft | 462 kts | 120° |
| 2026-04-29 22:19 | 13.03629 | -89.08859 | 38813 ft | 462 kts | 120° |
| 2026-04-29 22:19 | 13.00494 | -89.03104 | 38813 ft | 462 kts | 120° |
| 2026-04-29 22:20 | 12.97362 | -88.97342 | 38813 ft | 462 kts | 120° |
| 2026-04-29 22:20 | 12.94232 | -88.91583 | 38814 ft | 462 kts | 120° |
| 2026-04-29 22:21 | 12.91119 | -88.85860 | 38810 ft | 462 kts | 120° |
| 2026-04-29 22:21 | 12.87990 | -88.80114 | 38812 ft | 462 kts | 120° |
| 2026-04-29 22:22 | 12.84860 | -88.74368 | 38811 ft | 461 kts | 120° |
| 2026-04-29 22:22 | 12.81712 | -88.68592 | 38810 ft | 461 kts | 120° |
| 2026-04-29 22:23 | 12.78579 | -88.62847 | 38806 ft | 461 kts | 121° |
| 2026-04-29 22:23 | 12.75446 | -88.57116 | 38811 ft | 461 kts | 121° |
| 2026-04-29 22:24 | 12.72301 | -88.51390 | 38811 ft | 461 kts | 121° |
| 2026-04-29 22:24 | 12.69159 | -88.45672 | 38811 ft | 461 kts | 121° |
| 2026-04-29 22:25 | 12.66014 | -88.39950 | 38808 ft | 461 kts | 121° |
| 2026-04-29 22:25 | 12.62890 | -88.34268 | 38811 ft | 461 kts | 121° |
| 2026-04-29 22:26 | 12.59744 | -88.28547 | 38807 ft | 461 kts | 121° |
| 2026-04-29 22:26 | 12.56596 | -88.22828 | 38807 ft | 461 kts | 121° |
| 2026-04-29 22:27 | 12.53448 | -88.17111 | 38806 ft | 461 kts | 121° |
| 2026-04-29 22:27 | 12.50296 | -88.11393 | 38811 ft | 461 kts | 121° |
| 2026-04-29 22:28 | 12.47144 | -88.05676 | 38803 ft | 461 kts | 121° |
| 2026-04-29 22:28 | 12.43989 | -87.99959 | 38809 ft | 461 kts | 121° |
| 2026-04-29 22:29 | 12.40835 | -87.94246 | 38803 ft | 461 kts | 121° |
| 2026-04-29 22:29 | 12.37675 | -87.88526 | 38802 ft | 462 kts | 121° |
| 2026-04-29 22:30 | 12.34513 | -87.82806 | 38802 ft | 462 kts | 121° |
| 2026-04-29 22:30 | 12.31352 | -87.77092 | 38804 ft | 462 kts | 121° |
| 2026-04-29 22:31 | 12.28189 | -87.71377 | 38803 ft | 462 kts | 121° |
| 2026-04-29 22:31 | 12.25020 | -87.65655 | 38803 ft | 462 kts | 121° |
| 2026-04-29 22:32 | 12.21848 | -87.59932 | 38802 ft | 462 kts | 122° |
| 2026-04-29 22:32 | 12.18675 | -87.54209 | 38804 ft | 462 kts | 122° |
| 2026-04-29 22:33 | 12.15505 | -87.48496 | 38799 ft | 462 kts | 122° |
| 2026-04-29 22:33 | 12.12352 | -87.42817 | 38803 ft | 462 kts | 122° |
| 2026-04-29 22:34 | 12.09175 | -87.37098 | 38800 ft | 462 kts | 122° |
| 2026-04-29 22:34 | 12.06001 | -87.31388 | 38803 ft | 462 kts | 122° |
| 2026-04-29 22:35 | 12.02823 | -87.25674 | 38796 ft | 462 kts | 122° |
| 2026-04-29 22:35 | 11.99627 | -87.19931 | 38801 ft | 462 kts | 122° |
| 2026-04-29 22:36 | 11.96471 | -87.14265 | 38800 ft | 462 kts | 122° |
| 2026-04-29 22:36 | 11.93292 | -87.08558 | 38799 ft | 462 kts | 122° |
| 2026-04-29 22:37 | 11.90113 | -87.02857 | 38796 ft | 461 kts | 122° |
| 2026-04-29 22:37 | 11.86894 | -86.97086 | 38793 ft | 461 kts | 122° |
| 2026-04-29 22:38 | 11.83710 | -86.91383 | 38793 ft | 461 kts | 122° |
| 2026-04-29 22:38 | 11.80534 | -86.85696 | 38787 ft | 461 kts | 122° |
| 2026-04-29 22:39 | 11.77356 | -86.80010 | 38793 ft | 460 kts | 122° |
| 2026-04-29 22:39 | 11.74181 | -86.74332 | 38793 ft | 460 kts | 122° |
| 2026-04-29 22:40 | 11.71547 | -86.69624 | 38792 ft | 460 kts | 122° |
| 2026-04-29 22:40 | 11.67841 | -86.63003 | 38793 ft | 459 kts | 122° |
| 2026-04-29 22:41 | 11.64670 | -86.57341 | 38792 ft | 459 kts | 122° |
| 2026-04-29 22:41 | 11.62016 | -86.52607 | 38791 ft | 459 kts | 123° |
| 2026-04-29 22:42 | 11.58855 | -86.46970 | 38792 ft | 458 kts | 123° |
| 2026-04-29 22:42 | 11.55690 | -86.41329 | 38790 ft | 458 kts | 123° |
| 2026-04-29 22:43 | 11.52527 | -86.35693 | 38790 ft | 457 kts | 123° |
| 2026-04-29 22:43 | 11.49363 | -86.30060 | 38788 ft | 457 kts | 123° |
| 2026-04-29 22:44 | 11.46204 | -86.24440 | 38788 ft | 457 kts | 123° |
| 2026-04-29 22:44 | 11.43048 | -86.18827 | 38791 ft | 456 kts | 123° |
| 2026-04-29 22:45 | 11.39842 | -86.13131 | 38800 ft | 457 kts | 123° |
| 2026-04-29 22:45 | 11.36675 | -86.07505 | 38795 ft | 458 kts | 123° |
| 2026-04-29 22:46 | 11.33493 | -86.01856 | 38795 ft | 460 kts | 123° |
| 2026-04-29 22:46 | 11.30299 | -85.96188 | 38666 ft | 465 kts | 123° |
| 2026-04-29 22:46 | 11.28671 | -85.93303 | 38122 ft | 471 kts | 123° |
| 2026-04-29 22:47 | 11.27044 | -85.90415 | 37586 ft | 468 kts | 123° |
| 2026-04-29 22:47 | 11.25433 | -85.87555 | 37207 ft | 462 kts | 123° |
| 2026-04-29 22:47 | 11.23837 | -85.84725 | 36791 ft | 459 kts | 123° |
| 2026-04-29 22:47 | 11.22083 | -85.82056 | 36364 ft | 450 kts | 135° |
| 2026-04-29 22:48 | 11.19859 | -85.79876 | 35999 ft | 439 kts | 146° |
| 2026-04-29 22:48 | 11.17341 | -85.78187 | 35607 ft | 429 kts | 157° |
| 2026-04-29 22:48 | 11.14612 | -85.77030 | 35243 ft | 422 kts | 163° |
| 2026-04-29 22:48 | 11.11865 | -85.75998 | 34840 ft | 419 kts | 163° |
| 2026-04-29 22:49 | 11.09147 | -85.74955 | 34453 ft | 417 kts | 162° |
| 2026-04-29 22:49 | 11.06474 | -85.73899 | 34054 ft | 415 kts | 162° |
| 2026-04-29 22:49 | 11.03759 | -85.72802 | 33649 ft | 413 kts | 162° |
| 2026-04-29 22:49 | 11.01104 | -85.71711 | 33229 ft | 410 kts | 161° |
| 2026-04-29 22:50 | 10.98466 | -85.70622 | 32831 ft | 408 kts | 161° |
| 2026-04-29 22:50 | 10.95845 | -85.69540 | 32433 ft | 405 kts | 162° |
| 2026-04-29 22:50 | 10.93242 | -85.68468 | 32055 ft | 402 kts | 162° |
| 2026-04-29 22:50 | 10.90626 | -85.67393 | 31672 ft | 399 kts | 162° |
| 2026-04-29 22:51 | 10.88058 | -85.66339 | 31295 ft | 396 kts | 162° |
| 2026-04-29 22:51 | 10.85513 | -85.65295 | 30924 ft | 393 kts | 162° |
| 2026-04-29 22:51 | 10.80465 | -85.63226 | 30186 ft | 389 kts | 162° |
| 2026-04-29 22:52 | 10.77897 | -85.62174 | 29800 ft | 386 kts | 162° |
| 2026-04-29 22:52 | 10.75409 | -85.61155 | 29376 ft | 383 kts | 162° |
| 2026-04-29 22:52 | 10.72945 | -85.60146 | 28963 ft | 380 kts | 162° |
| 2026-04-29 22:52 | 10.70500 | -85.59144 | 28564 ft | 377 kts | 162° |
| 2026-04-29 22:53 | 10.68075 | -85.58151 | 28176 ft | 374 kts | 162° |
| 2026-04-29 22:53 | 10.65672 | -85.57167 | 27798 ft | 371 kts | 162° |
| 2026-04-29 22:53 | 10.63286 | -85.56190 | 27430 ft | 368 kts | 162° |
| 2026-04-29 22:53 | 10.60804 | -85.55035 | 27006 ft | 370 kts | 149° |
| 2026-04-29 22:54 | 10.58882 | -85.53287 | 26666 ft | 374 kts | 131° |
| 2026-04-29 22:54 | 10.57529 | -85.51018 | 26329 ft | 376 kts | 121° |
| 2026-04-29 22:54 | 10.56383 | -85.48665 | 25967 ft | 375 kts | 119° |
| 2026-04-29 22:54 | 10.55263 | -85.46270 | 25598 ft | 374 kts | 118° |
| 2026-04-29 22:55 | 10.54150 | -85.43881 | 25241 ft | 373 kts | 118° |
| 2026-04-29 22:55 | 10.53030 | -85.41503 | 24869 ft | 372 kts | 118° |
| 2026-04-29 22:55 | 10.51903 | -85.39138 | 24496 ft | 372 kts | 119° |
| 2026-04-29 22:55 | 10.50770 | -85.36779 | 24137 ft | 371 kts | 119° |
| 2026-04-29 22:56 | 10.49630 | -85.34418 | 23756 ft | 371 kts | 119° |
| 2026-04-29 22:56 | 10.48491 | -85.32065 | 23389 ft | 371 kts | 118° |
| 2026-04-29 22:56 | 10.47349 | -85.29707 | 22962 ft | 371 kts | 118° |
| 2026-04-29 22:56 | 10.46215 | -85.27367 | 22575 ft | 369 kts | 118° |
| 2026-04-29 22:57 | 10.45054 | -85.24972 | 22199 ft | 367 kts | 118° |
| 2026-04-29 22:57 | 10.43929 | -85.22651 | 21833 ft | 365 kts | 118° |
| 2026-04-29 22:57 | 10.42813 | -85.20349 | 21466 ft | 363 kts | 118° |
| 2026-04-29 22:57 | 10.41699 | -85.18053 | 21100 ft | 361 kts | 118° |
| 2026-04-29 22:58 | 10.40591 | -85.15769 | 20736 ft | 360 kts | 118° |
| 2026-04-29 22:58 | 10.39479 | -85.13480 | 20335 ft | 359 kts | 118° |
| 2026-04-29 22:58 | 10.38390 | -85.11238 | 19970 ft | 358 kts | 117° |
| 2026-04-29 22:58 | 10.37289 | -85.08970 | 19611 ft | 357 kts | 117° |
| 2026-04-29 22:59 | 10.36192 | -85.06713 | 19246 ft | 356 kts | 117° |
| 2026-04-29 22:59 | 10.35100 | -85.04463 | 18899 ft | 354 kts | 117° |
| 2026-04-29 22:59 | 10.34330 | -85.02877 | 18670 ft | 353 kts | 117° |
| 2026-04-29 22:59 | 10.33241 | -85.00634 | 18311 ft | 351 kts | 116° |
| 2026-04-29 23:00 | 10.32156 | -84.98401 | 17924 ft | 350 kts | 116° |
| 2026-04-29 23:00 | 10.31080 | -84.96187 | 17530 ft | 348 kts | 116° |
| 2026-04-29 23:00 | 10.30014 | -84.93994 | 17173 ft | 346 kts | 116° |
| 2026-04-29 23:00 | 10.28951 | -84.91808 | 16810 ft | 343 kts | 116° |
| 2026-04-29 23:01 | 10.27899 | -84.89645 | 16452 ft | 341 kts | 117° |
| 2026-04-29 23:01 | 10.26765 | -84.87316 | 16074 ft | 339 kts | 116° |
| 2026-04-29 23:01 | 10.25725 | -84.85179 | 15719 ft | 337 kts | 116° |
| 2026-04-29 23:01 | 10.24691 | -84.83054 | 15372 ft | 335 kts | 116° |
| 2026-04-29 23:02 | 10.23662 | -84.80939 | 15019 ft | 333 kts | 116° |
| 2026-04-29 23:02 | 10.22637 | -84.78834 | 14666 ft | 332 kts | 116° |
| 2026-04-29 23:02 | 10.21617 | -84.76738 | 14305 ft | 331 kts | 116° |
| 2026-04-29 23:02 | 10.20601 | -84.74652 | 13962 ft | 329 kts | 116° |
| 2026-04-29 23:03 | 10.19592 | -84.72579 | 13599 ft | 323 kts | 116° |
| 2026-04-29 23:03 | 10.18611 | -84.70566 | 13225 ft | 313 kts | 116° |
| 2026-04-29 23:03 | 10.17660 | -84.68612 | 12885 ft | 304 kts | 116° |
| 2026-04-29 23:03 | 10.16736 | -84.66718 | 12566 ft | 295 kts | 116° |
| 2026-04-29 23:04 | 10.15841 | -84.64881 | 12251 ft | 286 kts | 116° |
| 2026-04-29 23:04 | 10.14923 | -84.63125 | 11943 ft | 278 kts | 126° |
| 2026-04-29 23:04 | 10.13542 | -84.61811 | 11752 ft | 270 kts | 147° |
| 2026-04-29 23:04 | 10.11900 | -84.60809 | 11592 ft | 284 kts | 149° |
| 2026-04-29 23:05 | 10.10180 | -84.59798 | 11377 ft | 294 kts | 149° |
| 2026-04-29 23:05 | 10.08426 | -84.58757 | 11152 ft | 296 kts | 149° |
| 2026-04-29 23:05 | 10.06633 | -84.57679 | 10922 ft | 295 kts | 148° |
| 2026-04-29 23:05 | 10.04878 | -84.56619 | 10706 ft | 291 kts | 148° |
| 2026-04-29 23:06 | 10.03156 | -84.55578 | 10484 ft | 286 kts | 148° |
| 2026-04-29 23:06 | 10.01457 | -84.54550 | 10273 ft | 282 kts | 148° |
| 2026-04-29 23:06 | 9.99790 | -84.53542 | 10067 ft | 277 kts | 147° |
| 2026-04-29 23:06 | 9.98372 | -84.52264 | 9798 ft | 274 kts | 123° |
| 2026-04-29 23:07 | 9.97490 | -84.50549 | 9378 ft | 276 kts | 113° |
| 2026-04-29 23:07 | 9.96696 | -84.48774 | 8934 ft | 275 kts | 113° |
| 2026-04-29 23:07 | 9.95923 | -84.47041 | 8526 ft | 271 kts | 113° |
| 2026-04-29 23:07 | 9.95144 | -84.45310 | 8113 ft | 269 kts | 112° |
| 2026-04-29 23:08 | 9.94355 | -84.43572 | 7701 ft | 266 kts | 112° |
| 2026-04-29 23:08 | 9.93584 | -84.41873 | 7287 ft | 264 kts | 112° |
| 2026-04-29 23:08 | 9.92840 | -84.40214 | 6904 ft | 260 kts | 108° |
| 2026-04-29 23:08 | 9.92709 | -84.38440 | 6497 ft | 252 kts | 72° |
| 2026-04-29 23:09 | 9.93431 | -84.36822 | 6132 ft | 248 kts | 63° |
| 2026-04-29 23:09 | 9.94093 | -84.35201 | 5731 ft | 248 kts | 67° |
| 2026-04-29 23:09 | 9.94683 | -84.33567 | 5298 ft | 245 kts | 68° |
| 2026-04-29 23:09 | 9.95262 | -84.31990 | 4965 ft | 231 kts | 68° |
| 2026-04-29 23:10 | 9.95811 | -84.30511 | 4662 ft | 215 kts | 67° |
| 2026-04-29 23:10 | 9.96317 | -84.29150 | 4393 ft | 198 kts | 67° |
| 2026-04-29 23:10 | 9.96780 | -84.27903 | 4155 ft | 181 kts | 68° |
| 2026-04-29 23:10 | 9.97208 | -84.26752 | 3951 ft | 168 kts | 69° |
| 2026-04-29 23:11 | 9.97612 | -84.25666 | 3760 ft | 166 kts | 70° |
| 2026-04-29 23:11 | 9.98019 | -84.24568 | 3536 ft | 166 kts | 70° |
| 2026-04-29 23:11 | 9.98434 | -84.23451 | 3303 ft | 174 kts | 70° |
| 2026-04-29 23:11 | 9.98855 | -84.22309 | 3047 ft | 171 kts | 68° |
| 2026-04-29 23:12 | 9.99260 | -84.21235 | 2998 ft | 156 kts | 70° |
| 2026-04-29 23:12 | 9.99578 | -84.20385 | 3038 ft | 98 kts | 69° |
| 2026-04-29 23:12 | 9.99743 | -84.19943 | 3037 ft | 46 kts | 69° |
| 2026-04-29 23:12 | 9.99842 | -84.19679 | 3048 ft | 28 kts | 70° |
| 2026-04-29 23:13 | 9.99853 | -84.19559 | 3054 ft | 7 kts | 132° |
| 2026-04-29 23:13 | 9.99850 | -84.19557 | 3054 ft | 2 kts | 141° |
| 2026-04-29 23:13 | 9.99842 | -84.19565 | 3051 ft | 1 kts | 249° |
| 2026-04-29 23:13 | 9.99846 | -84.19614 | 3052 ft | 11 kts | 260° |
| 2026-04-29 23:14 | 9.99813 | -84.19749 | 3043 ft | 26 kts | 249° |
| 2026-04-29 23:14 | 9.99753 | -84.19916 | 3038 ft | 19 kts | 252° |
| 2026-04-29 23:14 | 9.99774 | -84.20001 | 3034 ft | 14 kts | 325° |
| 2026-04-29 23:14 | 9.99827 | -84.20059 | 3034 ft | 8 kts | 300° |
| 2026-04-29 23:15 | 9.99855 | -84.20108 | 3033 ft | 7 kts | 300° |
| 2026-04-29 23:15 | 9.99862 | -84.20119 | 3033 ft | 0 kts | 301° |